Time;durP1;ratioP1;P1;durP2;ratioP2;P2;SDS_P1;SDS_P2;PMS_P1;PMS_P2;Temp;Humidity;BMP_temperature;BMP_pressure;BME280_temperature;BME280_humidity;BME280_pressure;Samples;Min_cycle;Max_cycle;Signal;HPM_P1;HPM_P2
2020/10/19 00:01:04;;;;;;;3.9;1.7;;;;;;;9.28;79.98828;943.4879;;;;
2020/10/19 00:03:31;;;;;;;2.4;1.4;;;;;;;9.25;80.36719;943.5005;;;;
2020/10/19 00:05:56;;;;;;;3.2;1.8;;;;;;;9.19;80.79004;943.4425;;;;
2020/10/19 00:08:23;;;;;;;2.4;1.5;;;;;;;9.16;80.80762;943.4197;;;;
2020/10/19 00:10:48;;;;;;;4.3;1.8;;;;;;;9.15;82.06934;943.4258;;;;
2020/10/19 00:13:15;;;;;;;3.6;1.7;;;;;;;9.09;82.77539;943.4825;;;;
2020/10/19 00:15:40;;;;;;;3.5;1.8;;;;;;;9.18;82.08594;943.4526;;;;
2020/10/19 00:18:08;;;;;;;3.1;1.7;;;;;;;9.3;81.51563;943.5335;;;;
2020/10/19 00:20:33;;;;;;;1.8;1.2;;;;;;;9.34;80.56836;943.5742;;;;
2020/10/19 00:22:59;;;;;;;1.4;1.1;;;;;;;9.36;78.06641;943.5873;;;;
2020/10/19 00:25:25;;;;;;;3.2;1.2;;;;;;;9.4;76.71777;943.5858;;;;
2020/10/19 00:27:51;;;;;;;1.5;1;;;;;;;9.27;74.94238;943.5504;;;;
2020/10/19 00:30:26;;;;;;;1.3;1.2;;;;;;;9.28;75.00098;943.5784;;;;
2020/10/19 00:32:53;;;;;;;1.8;1.2;;;;;;;9.17;74.41211;943.5518;;;;
2020/10/19 00:35:22;;;;;;;2;1.2;;;;;;;9.04;75.8457;943.5797;;;;
2020/10/19 00:37:50;;;;;;;1.6;1.2;;;;;;;8.93;74.90527;943.5831;;;;
2020/10/19 00:40:16;;;;;;;1.8;1;;;;;;;8.72;74.83691;943.5746;;;;
2020/10/19 00:42:42;;;;;;;2.2;1.2;;;;;;;8.57;76.06934;943.6355;;;;
2020/10/19 00:45:07;;;;;;;2.1;1.2;;;;;;;8.43;75.77344;943.5995;;;;
2020/10/19 00:47:32;;;;;;;1.2;0.9;;;;;;;8.64;75.69629;943.567;;;;
2020/10/19 00:49:57;;;;;;;3.3;1.2;;;;;;;8.6;76.36035;943.5505;;;;
2020/10/19 00:52:22;;;;;;;1.3;1;;;;;;;8.73;76.62109;943.5176;;;;
2020/10/19 00:54:48;;;;;;;2.4;0.9;;;;;;;8.43;76.26172;943.4988;;;;
2020/10/19 00:57:13;;;;;;;2.7;1.5;;;;;;;8.6;75.66699;943.553;;;;
2020/10/19 00:59:39;;;;;;;1.8;1.3;;;;;;;8.68;75.51074;943.5244;;;;
2020/10/19 01:02:04;;;;;;;1.8;1.1;;;;;;;8.79;74.97266;943.4866;;;;
2020/10/19 01:04:33;;;;;;;1.6;0.9;;;;;;;8.84;74.95898;943.4588;;;;
2020/10/19 01:07:07;;;;;;;1.1;1;;;;;;;8.92;75.46289;943.421;;;;
2020/10/19 01:09:34;;;;;;;2;1.5;;;;;;;9;75.14648;943.4721;;;;
2020/10/19 01:12:10;;;;;;;2.4;1;;;;;;;8.88;75.46582;943.3478;;;;
2020/10/19 01:14:41;;;;;;;2.9;1.2;;;;;;;8.71;77.25391;943.3733;;;;
2020/10/19 01:17:06;;;;;;;1.5;1.1;;;;;;;8.83;76.45898;943.3331;;;;
2020/10/19 01:19:42;;;;;;;1.6;1.2;;;;;;;8.82;76.3877;943.2573;;;;
2020/10/19 01:22:14;;;;;;;1.7;1.4;;;;;;;8.72;75.80176;943.1315;;;;
2020/10/19 01:24:39;;;;;;;3.2;1.4;;;;;;;8.8;76.54297;943.2255;;;;
2020/10/19 01:27:17;;;;;;;2.6;1.2;;;;;;;8.87;76.47461;943.1686;;;;
2020/10/19 01:29:42;;;;;;;1.8;1.1;;;;;;;8.92;76.77051;943.0882;;;;
2020/10/19 01:32:08;;;;;;;3.5;1.6;;;;;;;8.92;77.47559;943.0444;;;;
2020/10/19 01:34:36;;;;;;;2.7;1.3;;;;;;;8.8;77.56738;943.0151;;;;
2020/10/19 01:37:09;;;;;;;1.5;1.3;;;;;;;8.81;77.88574;942.9423;;;;
2020/10/19 01:39:42;;;;;;;2;1.3;;;;;;;8.83;77.94824;942.9598;;;;
2020/10/19 01:42:09;;;;;;;2.3;1.2;;;;;;;8.86;77.91992;942.9478;;;;
2020/10/19 01:44:39;;;;;;;1.7;1.3;;;;;;;8.83;78.07227;942.9089;;;;
2020/10/19 01:47:04;;;;;;;3.3;1.1;;;;;;;8.79;77.31543;942.8005;;;;
2020/10/19 01:49:29;;;;;;;3.5;1.7;;;;;;;8.72;77.29102;942.8521;;;;
2020/10/19 01:51:57;;;;;;;1.7;1.1;;;;;;;8.69;78.03613;942.791;;;;
2020/10/19 01:54:22;;;;;;;2.4;1.3;;;;;;;8.68;78.18066;942.832;;;;
2020/10/19 01:56:48;;;;;;;1.8;1.4;;;;;;;8.71;78.54004;942.8359;;;;
2020/10/19 01:59:18;;;;;;;2.2;1.5;;;;;;;8.72;78.56445;942.8774;;;;
2020/10/19 02:01:48;;;;;;;2.3;1.5;;;;;;;8.71;78.83496;942.8574;;;;
2020/10/19 02:04:13;;;;;;;2.5;1.4;;;;;;;8.68;79.12598;942.8448;;;;
2020/10/19 02:06:38;;;;;;;1.8;1.4;;;;;;;8.66;79.31445;942.8823;;;;
2020/10/19 02:09:08;;;;;;;3;1.2;;;;;;;8.59;79.48242;942.8406;;;;
2020/10/19 02:11:34;;;;;;;1.6;1;;;;;;;8.62;79.25098;942.8497;;;;
2020/10/19 02:14:05;;;;;;;3.2;1.4;;;;;;;8.64;79.42676;942.8733;;;;
2020/10/19 02:16:33;;;;;;;2.6;1.5;;;;;;;8.64;79.51758;942.8787;;;;
2020/10/19 02:18:59;;;;;;;2.4;1.4;;;;;;;8.64;79.73145;942.8732;;;;
2020/10/19 02:21:24;;;;;;;1.4;1.2;;;;;;;8.67;79.66992;942.8931;;;;
2020/10/19 02:23:51;;;;;;;2.4;1.6;;;;;;;8.62;80.28516;942.9147;;;;
2020/10/19 02:26:19;;;;;;;2.4;1.6;;;;;;;8.62;80.1377;942.9228;;;;
2020/10/19 02:28:48;;;;;;;1.4;0.9;;;;;;;8.56;78.29785;942.9615;;;;
2020/10/19 02:31:24;;;;;;;1.7;1.1;;;;;;;8.49;77.35059;943.0517;;;;
2020/10/19 02:33:53;;;;;;;2;1.4;;;;;;;8.46;77.1416;943.0582;;;;
2020/10/19 02:36:23;;;;;;;1.7;1.1;;;;;;;8.53;76.96094;943.0686;;;;
2020/10/19 02:38:54;;;;;;;1;0.8;;;;;;;8.53;76.59766;943.079;;;;
2020/10/19 02:41:19;;;;;;;2.3;1.3;;;;;;;8.47;76.29102;943.0623;;;;
2020/10/19 02:43:55;;;;;;;2.2;1.3;;;;;;;8.3;76.11328;943.1337;;;;
2020/10/19 02:46:23;;;;;;;1.2;0.8;;;;;;;8.08;76.47168;943.1332;;;;
2020/10/19 02:48:48;;;;;;;2.5;1.4;;;;;;;8.16;77.82617;943.1155;;;;
2020/10/19 02:51:13;;;;;;;1.6;1.1;;;;;;;8.23;77.87305;943.1169;;;;
2020/10/19 02:53:41;;;;;;;1.5;1;;;;;;;8.16;76.44238;943.1053;;;;
2020/10/19 02:56:13;;;;;;;1;0.9;;;;;;;8.14;76.8125;943.1221;;;;
2020/10/19 02:58:38;;;;;;;2.4;1.4;;;;;;;8.22;76.41602;943.1063;;;;
2020/10/19 03:01:14;;;;;;;2.6;1.1;;;;;;;8.24;76.53516;943.1384;;;;
2020/10/19 03:03:39;;;;;;;1.7;1.2;;;;;;;8.12;76.03711;943.178;;;;
2020/10/19 03:06:05;;;;;;;2.8;1.2;;;;;;;8.04;75.78223;943.1933;;;;
2020/10/19 03:08:33;;;;;;;1.9;1.2;;;;;;;8.02;76.74414;943.2125;;;;
2020/10/19 03:11:02;;;;;;;1.6;1.2;;;;;;;7.82;78.27441;943.2551;;;;
2020/10/19 03:13:33;;;;;;;1.3;0.7;;;;;;;7.79;78.41699;943.2731;;;;
2020/10/19 03:16:04;;;;;;;1.5;1.2;;;;;;;7.8;79.69141;943.2853;;;;
2020/10/19 03:18:36;;;;;;;3.4;1.3;;;;;;;7.83;79.42383;943.2761;;;;
2020/10/19 03:21:02;;;;;;;1;0.9;;;;;;;7.52;80.96582;943.281;;;;
2020/10/19 03:23:30;;;;;;;2.3;1.2;;;;;;;7.49;79.12207;943.2889;;;;
2020/10/19 03:26:02;;;;;;;1.9;1.4;;;;;;;7.58;79.00293;943.2748;;;;
2020/10/19 03:28:33;;;;;;;1.3;1;;;;;;;7.61;77.71484;943.2745;;;;
2020/10/19 03:31:11;;;;;;;1.9;1.3;;;;;;;7.58;77.54004;943.27;;;;
2020/10/19 03:33:39;;;;;;;1.1;0.9;;;;;;;7.55;77.56738;943.2897;;;;
2020/10/19 03:36:05;;;;;;;1.7;1.2;;;;;;;7.6;77.5332;943.2897;;;;
2020/10/19 03:38:33;;;;;;;2;1.2;;;;;;;7.51;76.99414;943.2911;;;;
2020/10/19 03:41:12;;;;;;;1.8;1;;;;;;;7.59;77.35059;943.2475;;;;
2020/10/19 03:43:40;;;;;;;1.7;1.2;;;;;;;7.4;77.67773;943.3058;;;;
2020/10/19 03:46:15;;;;;;;2.6;1.3;;;;;;;7.56;78.05664;943.2536;;;;
2020/10/19 03:48:42;;;;;;;1.3;1.2;;;;;;;7.62;77.5918;943.2548;;;;
2020/10/19 03:51:07;;;;;;;1.9;1.4;;;;;;;7.6;78.24805;943.2779;;;;
2020/10/19 03:53:35;;;;;;;2.7;1.4;;;;;;;7.57;78.55762;943.2411;;;;
2020/10/19 03:56:14;;;;;;;2.1;1.5;;;;;;;7.48;78.9502;943.2475;;;;
2020/10/19 03:58:39;;;;;;;1.9;1.5;;;;;;;7.44;78.9541;943.1749;;;;
2020/10/19 04:02:36;;;;;;;2.8;1.9;;;;;;;7.21;77.74512;943.2676;;;;
2020/10/19 04:05:05;;;;;;;2.7;1.7;;;;;;;6.74;78.39551;943.2531;;;;
2020/10/19 04:07:34;;;;;;;2.5;1.2;;;;;;;6.65;79.6123;943.2076;;;;
2020/10/19 04:10:01;;;;;;;3.3;1.5;;;;;;;6.75;80.12891;943.2502;;;;
2020/10/19 04:12:30;;;;;;;1.7;1.3;;;;;;;6.83;79.63477;943.2356;;;;
2020/10/19 04:14:55;;;;;;;2.7;1.4;;;;;;;6.93;79.67578;943.2411;;;;
2020/10/19 04:17:25;;;;;;;3.5;1.9;;;;;;;6.95;79.88184;943.2346;;;;
2020/10/19 04:20:01;;;;;;;4.2;2.1;;;;;;;6.96;80.45117;943.2238;;;;
2020/10/19 04:22:33;;;;;;;3.1;1.6;;;;;;;6.88;81.17188;943.1493;;;;
2020/10/19 04:25:04;;;;;;;3.4;1.6;;;;;;;6.94;81.10449;943.1259;;;;
2020/10/19 04:27:29;;;;;;;1.9;1.2;;;;;;;6.97;80.92969;943.0652;;;;
2020/10/19 04:29:59;;;;;;;3.3;1.4;;;;;;;6.99;80.69531;943.1281;;;;
2020/10/19 04:32:32;;;;;;;1.7;1.1;;;;;;;7.04;80.23926;943.1268;;;;
2020/10/19 04:35:06;;;;;;;5;1.8;;;;;;;7.01;80.00781;943.072;;;;
2020/10/19 04:37:33;;;;;;;1.7;1.1;;;;;;;6.84;80.45117;943.072;;;;
2020/10/19 04:40:04;;;;;;;4.3;1.7;;;;;;;6.88;80.97949;943.0439;;;;
2020/10/19 04:42:30;;;;;;;2.1;1.6;;;;;;;6.69;81.92773;943.0283;;;;
2020/10/19 04:45:05;;;;;;;2.5;1.3;;;;;;;6.83;81.37793;943.0394;;;;
2020/10/19 04:47:34;;;;;;;1.3;1.1;;;;;;;6.98;81.06738;943.048;;;;
2020/10/19 04:49:59;;;;;;;3;1.8;;;;;;;7.08;80.74512;943.0552;;;;
2020/10/19 04:52:26;;;;;;;3;1.5;;;;;;;7.11;80.60645;943.0753;;;;
2020/10/19 04:54:51;;;;;;;3.8;1.8;;;;;;;7.16;80.36523;943.0775;;;;
2020/10/19 04:57:22;;;;;;;3.3;1.7;;;;;;;7.1;80.66895;943.0517;;;;
2020/10/19 04:59:57;;;;;;;5.2;1.8;;;;;;;7.14;80.96094;943.0909;;;;
2020/10/19 05:02:22;;;;;;;1.9;1.3;;;;;;;7.26;80.00977;943.0253;;;;
2020/10/19 05:04:47;;;;;;;3.7;1.6;;;;;;;7.33;79.4668;943.0422;;;;
2020/10/19 05:07:13;;;;;;;1.9;1.3;;;;;;;7.28;77.80371;943.0377;;;;
2020/10/19 05:09:45;;;;;;;2.3;1.4;;;;;;;7.26;77.49316;943.0179;;;;
2020/10/19 05:12:15;;;;;;;2.6;1.3;;;;;;;7.33;77.31348;943.077;;;;
2020/10/19 05:14:50;;;;;;;4.1;1.8;;;;;;;7.35;77.04395;943.1498;;;;
2020/10/19 05:17:20;;;;;;;3.7;2.1;;;;;;;7.24;78.08008;943.084;;;;
2020/10/19 05:19:55;;;;;;;2.3;1.5;;;;;;;7.04;78.95996;943.1047;;;;
2020/10/19 05:22:21;;;;;;;2.8;1.6;;;;;;;7.18;78.88477;943.1581;;;;
2020/10/19 05:24:50;;;;;;;2.8;1.6;;;;;;;7.1;78.99414;943.1089;;;;
2020/10/19 05:27:21;;;;;;;2.3;1.7;;;;;;;7.03;79.51367;943.1511;;;;
2020/10/19 05:29:50;;;;;;;2.3;1.6;;;;;;;7.06;80.52832;943.0864;;;;
2020/10/19 05:32:21;;;;;;;1.7;1.4;;;;;;;7.1;79.41211;943.1531;;;;
2020/10/19 05:34:48;;;;;;;1.9;1.5;;;;;;;6.88;79.11328;943.1153;;;;
2020/10/19 05:37:14;;;;;;;2.9;1.8;;;;;;;6.93;79.72168;943.1128;;;;
2020/10/19 05:39:44;;;;;;;3;1.5;;;;;;;6.88;79.80176;943.0527;;;;
2020/10/19 05:42:14;;;;;;;2.1;1.5;;;;;;;6.83;79.30664;943.0623;;;;
2020/10/19 05:44:45;;;;;;;2.6;1.5;;;;;;;6.72;79.54492;943.0854;;;;
2020/10/19 05:47:11;;;;;;;7.2;1.4;;;;;;;6.74;79.94629;943.0441;;;;
2020/10/19 05:49:38;;;;;;;2.2;1.5;;;;;;;6.74;80.19531;943.0553;;;;
2020/10/19 05:52:09;;;;;;;2.7;2;;;;;;;6.69;81.19434;943.118;;;;
2020/10/19 05:54:32;;;;;;;5;2.5;;;;;;;6.58;82.37305;943.2533;;;;
2020/10/19 05:56:57;;;;;;;3.9;2.3;;;;;;;6.56;82.76367;943.1728;;;;
2020/10/19 05:59:22;;;;;;;5.2;2.2;;;;;;;6.44;83.50977;943.1206;;;;
2020/10/19 06:01:52;;;;;;;3;1.8;;;;;;;6.42;83.81152;943.0449;;;;
2020/10/19 06:04:17;;;;;;;2.2;1.7;;;;;;;6.37;84.38867;943.1536;;;;
2020/10/19 06:06:43;;;;;;;3.9;2.1;;;;;;;6.27;84.92383;943.1875;;;;
2020/10/19 06:09:08;;;;;;;4.2;1.9;;;;;;;5.99;86.34766;943.2407;;;;
2020/10/19 06:11:36;;;;;;;9.2;2.3;;;;;;;5.91;86.83984;943.267;;;;
2020/10/19 06:14:09;;;;;;;4.7;1.8;;;;;;;5.96;86.90723;943.3488;;;;
2020/10/19 06:16:35;;;;;;;3.7;1.9;;;;;;;5.98;88.03906;943.3832;;;;
2020/10/19 06:19:03;;;;;;;2.9;1.9;;;;;;;6.07;87.38086;943.4358;;;;
2020/10/19 06:21:28;;;;;;;4.8;2.1;;;;;;;6.12;86.67871;943.4849;;;;
2020/10/19 06:23:53;;;;;;;5.3;2.2;;;;;;;6;86.64355;943.4993;;;;
2020/10/19 06:26:20;;;;;;;4.9;2.3;;;;;;;5.97;86.35547;943.5538;;;;
2020/10/19 06:28:57;;;;;;;5.5;2.2;;;;;;;6.14;86.00586;943.5781;;;;
2020/10/19 06:31:24;;;;;;;3.5;2.2;;;;;;;5.82;85.74902;943.6295;;;;
2020/10/19 06:33:53;;;;;;;5.9;2.3;;;;;;;5.91;86.20703;943.6568;;;;
2020/10/19 06:36:23;;;;;;;5.4;2.5;;;;;;;6.04;85.56738;943.7455;;;;
2020/10/19 06:38:55;;;;;;;3.5;2.3;;;;;;;6.07;86.69238;943.6911;;;;
2020/10/19 06:41:20;;;;;;;5.1;2.5;;;;;;;5.94;87.15039;943.8553;;;;
2020/10/19 06:43:58;;;;;;;3.6;2.2;;;;;;;6.11;85.62598;943.7889;;;;
2020/10/19 06:46:26;;;;;;;3.7;2.4;;;;;;;6.02;85.36133;943.8909;;;;
2020/10/19 06:48:57;;;;;;;2.2;1.6;;;;;;;5.86;85.56348;943.9042;;;;
2020/10/19 06:51:22;;;;;;;2.2;1.8;;;;;;;5.82;85.35352;943.8625;;;;
2020/10/19 06:53:49;;;;;;;2.8;2.1;;;;;;;5.84;84.96387;943.9125;;;;
2020/10/19 06:56:19;;;;;;;3.3;1.9;;;;;;;6.07;84.55664;943.9639;;;;
2020/10/19 06:58:44;;;;;;;3.5;2;;;;;;;6.24;83.36719;943.9036;;;;
2020/10/19 07:01:19;;;;;;;2;1.5;;;;;;;6.41;82.8916;943.9241;;;;
2020/10/19 07:03:47;;;;;;;4.5;1.9;;;;;;;6.45;82.00684;943.942;;;;
2020/10/19 07:06:16;;;;;;;4.3;2.2;;;;;;;6.4;81.40918;943.9445;;;;
2020/10/19 07:08:43;;;;;;;6.4;2.3;;;;;;;6.43;81.43652;943.949;;;;
2020/10/19 07:11:08;;;;;;;3.6;1.9;;;;;;;6.5;81.37305;943.9984;;;;
2020/10/19 07:13:41;;;;;;;2.6;1.7;;;;;;;6.5;80.45508;943.9713;;;;
2020/10/19 07:16:15;;;;;;;4.2;1.5;;;;;;;6.81;80.30859;944.0301;;;;
2020/10/19 07:18:51;;;;;;;1.9;1.3;;;;;;;6.87;79.96973;944.0278;;;;
2020/10/19 07:21:19;;;;;;;3.4;1.8;;;;;;;7.04;78.64258;944.0871;;;;
2020/10/19 07:23:45;;;;;;;3.1;1.7;;;;;;;7.15;78.02832;944.0005;;;;
2020/10/19 07:26:10;;;;;;;1.8;1.5;;;;;;;7.39;78.07422;944.009;;;;
2020/10/19 07:28:35;;;;;;;2.3;1.6;;;;;;;7.46;77.46191;943.9925;;;;
2020/10/19 07:31:00;;;;;;;4.4;2.2;;;;;;;7.55;77.85156;943.9871;;;;
2020/10/19 07:33:30;;;;;;;3.4;1.8;;;;;;;7.72;76.375;943.9561;;;;
2020/10/19 07:35:57;;;;;;;4.3;1.9;;;;;;;7.67;76.32031;943.8691;;;;
2020/10/19 07:38:22;;;;;;;2.8;1.8;;;;;;;8.05;76.19434;943.8978;;;;
2020/10/19 07:40:48;;;;;;;4.2;2.3;;;;;;;8.17;74.4668;943.8677;;;;
2020/10/19 07:43:17;;;;;;;2.3;1.6;;;;;;;9.07;72.13086;943.9355;;;;
2020/10/19 07:45:49;;;;;;;1.6;1.3;;;;;;;9.78;68.56934;943.8333;;;;
2020/10/19 07:48:18;;;;;;;1.8;1.5;;;;;;;10.65;65.29199;943.7866;;;;
2020/10/19 07:50:50;;;;;;;1.7;1.1;;;;;;;11.46;61.59277;943.7748;;;;
2020/10/19 07:53:18;;;;;;;1.5;1.2;;;;;;;11.55;60.46094;943.6508;;;;
2020/10/19 07:55:46;;;;;;;1.2;0.9;;;;;;;13.13;55.30566;943.5992;;;;
2020/10/19 07:58:11;;;;;;;2.5;1.3;;;;;;;14.11;52.53906;943.632;;;;
2020/10/19 08:00:42;;;;;;;2.2;1.2;;;;;;;16.03;47.56836;943.5735;;;;
2020/10/19 08:03:07;;;;;;;3;1.2;;;;;;;16.73;45.38672;943.4968;;;;
2020/10/19 08:05:32;;;;;;;1.7;1;;;;;;;17.7;42.3291;943.5524;;;;
2020/10/19 08:07:57;;;;;;;1.5;1.1;;;;;;;17.79;41.57227;943.4685;;;;
2020/10/19 08:10:26;;;;;;;0.8;0.6;;;;;;;18.54;39.78223;943.4289;;;;
2020/10/19 08:12:50;;;;;;;2.3;0.8;;;;;;;18.2;41.16895;943.4187;;;;
2020/10/19 08:15:19;;;;;;;1;0.6;;;;;;;18.86;39.58984;943.4133;;;;
2020/10/19 08:17:45;;;;;;;0.9;0.5;;;;;;;18.85;39.05371;943.3376;;;;
2020/10/19 08:20:19;;;;;;;1.6;0.8;;;;;;;18.77;39.43066;943.3747;;;;
2020/10/19 08:22:44;;;;;;;1.2;0.5;;;;;;;18.04;39.38867;943.3423;;;;
2020/10/19 08:25:17;;;;;;;1.1;0.6;;;;;;;17.21;41.69043;943.3469;;;;
2020/10/19 08:27:46;;;;;;;0.6;0.4;;;;;;;16.54;43.22559;943.3059;;;;
2020/10/19 08:30:14;;;;;;;0.7;0.6;;;;;;;16.45;44.26855;943.3097;;;;
2020/10/19 08:32:39;;;;;;;0.7;0.6;;;;;;;16.59;44.48047;943.2872;;;;
2020/10/19 08:35:04;;;;;;;1.2;0.6;;;;;;;16.44;45.26367;943.2244;;;;
2020/10/19 08:37:31;;;;;;;0.8;0.7;;;;;;;16.8;43.81836;943.202;;;;
2020/10/19 08:40:00;;;;;;;0.3;0.3;;;;;;;16.82;43.56543;943.2658;;;;
2020/10/19 08:42:27;;;;;;;0.9;0.6;;;;;;;14.69;46.74316;943.2447;;;;
2020/10/19 08:44:52;;;;;;;0.4;0.4;;;;;;;14.44;48.83691;943.2536;;;;
2020/10/19 08:47:19;;;;;;;1.1;0.6;;;;;;;14.35;49.01074;943.2662;;;;
2020/10/19 08:49:44;;;;;;;0.5;0.5;;;;;;;13.79;50.9375;943.2608;;;;
2020/10/19 08:52:09;;;;;;;0.5;0.5;;;;;;;13.5;53.03125;943.1869;;;;
2020/10/19 08:54:38;;;;;;;3.4;0.8;;;;;;;13.78;51.97168;943.1502;;;;
2020/10/19 08:57:08;;;;;;;1;0.8;;;;;;;13.51;51.51465;943.1566;;;;
2020/10/19 08:59:29;;;;;;;0.6;0.6;;;;;;;13.16;52.4707;943.1453;;;;
2020/10/19 09:01:54;;;;;;;0.7;0.6;;;;;;;13.05;53.61914;943.1037;;;;
2020/10/19 09:04:27;;;;;;;0.9;0.7;;;;;;;13.21;53.74219;943.079;;;;
2020/10/19 09:06:52;;;;;;;0.9;0.7;;;;;;;12.92;54.61328;943.1208;;;;
2020/10/19 09:09:20;;;;;;;0.6;0.5;;;;;;;13.01;54.81934;943.1375;;;;
2020/10/19 09:11:49;;;;;;;8.3;1;;;;;;;12.73;55.56445;943.0869;;;;
2020/10/19 09:14:19;;;;;;;2.1;1.1;;;;;;;12.55;55.5293;943.1225;;;;
2020/10/19 09:16:45;;;;;;;0.6;0.5;;;;;;;12.52;55.77832;943.0975;;;;
2020/10/19 09:19:15;;;;;;;1;0.9;;;;;;;12.51;57.40527;943.0517;;;;
2020/10/19 09:21:46;;;;;;;1.5;1;;;;;;;12.45;57.10059;943.0385;;;;
2020/10/19 09:24:13;;;;;;;1.6;0.9;;;;;;;12.62;55.86035;943.0531;;;;
2020/10/19 09:26:40;;;;;;;1.4;0.7;;;;;;;12.55;55.51855;942.9716;;;;
2020/10/19 09:29:05;;;;;;;1.1;0.8;;;;;;;12.6;56.40723;942.9919;;;;
2020/10/19 09:31:30;;;;;;;0.6;0.6;;;;;;;12.49;55.00684;943.0037;;;;
2020/10/19 09:33:56;;;;;;;1.4;0.9;;;;;;;12.49;56.60059;943.002;;;;
2020/10/19 09:36:23;;;;;;;0.8;0.6;;;;;;;12.33;59.68652;942.9691;;;;
2020/10/19 09:38:48;;;;;;;1.1;0.8;;;;;;;12.61;57.58984;942.9904;;;;
2020/10/19 09:41:13;;;;;;;3.6;0.7;;;;;;;12.57;56.87402;942.9612;;;;
2020/10/19 09:43:40;;;;;;;1.1;0.7;;;;;;;12.92;56.04883;942.945;;;;
2020/10/19 09:46:07;;;;;;;2.2;0.9;;;;;;;12.71;56.37695;942.9581;;;;
2020/10/19 09:48:32;;;;;;;0.8;0.7;;;;;;;12.7;56.70801;942.9213;;;;
2020/10/19 09:50:59;;;;;;;0.6;0.6;;;;;;;12.61;56.58301;942.8749;;;;
2020/10/19 09:53:26;;;;;;;1;0.8;;;;;;;12.53;58.39453;942.8259;;;;
2020/10/19 09:55:55;;;;;;;1.2;0.8;;;;;;;12.67;57.95508;942.8699;;;;
2020/10/19 09:58:25;;;;;;;1;0.7;;;;;;;12.79;54.73535;942.8501;;;;
2020/10/19 10:00:57;;;;;;;1.5;0.8;;;;;;;12.62;55.81445;942.8502;;;;
2020/10/19 10:03:26;;;;;;;1.3;0.7;;;;;;;12.78;58.25586;942.8404;;;;
2020/10/19 10:05:53;;;;;;;0.5;0.5;;;;;;;12.68;54.08984;942.7541;;;;
2020/10/19 10:08:20;;;;;;;1;0.8;;;;;;;12.62;57.15625;942.8127;;;;
2020/10/19 10:10:48;;;;;;;0.7;0.7;;;;;;;12.69;56.0752;942.7941;;;;
2020/10/19 10:13:19;;;;;;;0.4;0.4;;;;;;;12.82;54.88867;942.7731;;;;
2020/10/19 10:15:51;;;;;;;0.8;0.6;;;;;;;12.8;55.66504;942.7278;;;;
2020/10/19 10:18:20;;;;;;;1.1;0.6;;;;;;;12.93;54.84375;942.666;;;;
2020/10/19 10:20:47;;;;;;;0.4;0.4;;;;;;;12.82;55.18652;942.662;;;;
2020/10/19 10:23:14;;;;;;;2.7;0.7;;;;;;;13.14;54.04395;942.6246;;;;
2020/10/19 10:25:43;;;;;;;1;0.6;;;;;;;13.4;52.85742;942.6212;;;;
2020/10/19 10:28:12;;;;;;;0.4;0.4;;;;;;;12.97;51.62305;942.6152;;;;
2020/10/19 10:30:38;;;;;;;0.4;0.4;;;;;;;13.24;54.33203;942.6547;;;;
2020/10/19 10:33:03;;;;;;;1.8;0.8;;;;;;;13.43;52.17188;942.5992;;;;
2020/10/19 10:35:32;;;;;;;0.6;0.5;;;;;;;13.37;53.41699;942.5546;;;;
2020/10/19 10:37:57;;;;;;;0.6;0.4;;;;;;;13.48;53.89063;942.5154;;;;
2020/10/19 10:40:24;;;;;;;1;0.7;;;;;;;13.65;54.74023;942.459;;;;
2020/10/19 10:42:50;;;;;;;2.2;0.7;;;;;;;13.92;52.65527;942.4219;;;;
2020/10/19 10:45:29;;;;;;;0.4;0.4;;;;;;;14.03;53.01367;942.372;;;;
2020/10/19 10:47:55;;;;;;;1.1;0.6;;;;;;;14.21;53.4502;942.3917;;;;
2020/10/19 10:50:21;;;;;;;0.9;0.5;;;;;;;14.34;52.34863;942.3209;;;;
2020/10/19 10:52:48;;;;;;;0.6;0.5;;;;;;;14.26;52.67285;942.2222;;;;
2020/10/19 10:55:15;;;;;;;0.5;0.4;;;;;;;14.6;52.96875;942.2456;;;;
2020/10/19 10:57:43;;;;;;;0.5;0.4;;;;;;;14.68;53.27734;942.2322;;;;
2020/10/19 11:00:15;;;;;;;1.5;0.7;;;;;;;14.73;53.27246;942.1345;;;;
2020/10/19 11:02:45;;;;;;;0.8;0.5;;;;;;;15.04;52.7334;942.0402;;;;
2020/10/19 11:05:19;;;;;;;1.3;0.8;;;;;;;15.52;49.61523;941.9897;;;;
2020/10/19 11:07:46;;;;;;;0.8;0.6;;;;;;;15.67;49.45898;941.9504;;;;
2020/10/19 11:10:11;;;;;;;0.5;0.5;;;;;;;15.85;48.30078;941.9562;;;;
2020/10/19 11:12:36;;;;;;;2.1;0.6;;;;;;;16.27;46.34473;941.8467;;;;
2020/10/19 11:15:04;;;;;;;0.6;0.6;;;;;;;16.73;47.13477;941.7847;;;;
2020/10/19 11:17:31;;;;;;;0.6;0.4;;;;;;;17.3;45.38672;941.7302;;;;
2020/10/19 11:19:57;;;;;;;0.4;0.4;;;;;;;17.88;43.43848;941.7244;;;;
2020/10/19 11:22:21;;;;;;;0.4;0.4;;;;;;;18.15;40.99023;941.6508;;;;
2020/10/19 11:24:47;;;;;;;1.3;0.6;;;;;;;18.61;41.34668;941.6412;;;;
2020/10/19 11:27:16;;;;;;;1.2;0.6;;;;;;;18.59;41.40234;941.5722;;;;
2020/10/19 11:29:41;;;;;;;0.7;0.5;;;;;;;18.82;40.87793;941.4624;;;;
2020/10/19 11:32:07;;;;;;;0.8;0.7;;;;;;;18.83;40.2627;941.5142;;;;
2020/10/19 11:34:32;;;;;;;0.7;0.6;;;;;;;18.87;40.28906;941.3924;;;;
2020/10/19 11:36:57;;;;;;;0.7;0.6;;;;;;;18.98;40.21875;941.4122;;;;
2020/10/19 11:39:26;;;;;;;0.9;0.5;;;;;;;19.3;40.81738;941.3859;;;;
2020/10/19 11:41:51;;;;;;;1.7;0.6;;;;;;;19.72;39.14258;941.3527;;;;
2020/10/19 11:44:16;;;;;;;1.9;0.4;;;;;;;20.13;38.07031;941.3532;;;;
2020/10/19 11:46:42;;;;;;;0.3;0.3;;;;;;;21.46;35.5625;941.3476;;;;
2020/10/19 11:49:12;;;;;;;0.6;0.5;;;;;;;22.51;33.21777;941.3451;;;;
2020/10/19 11:51:37;;;;;;;0.7;0.5;;;;;;;22.76;34.07031;941.309;;;;
2020/10/19 11:54:06;;;;;;;0.4;0.3;;;;;;;23.35;31.96387;941.2772;;;;
2020/10/19 11:56:30;;;;;;;0.8;0.7;;;;;;;23.71;31.33105;941.248;;;;
2020/10/19 11:58:55;;;;;;;0.6;0.4;;;;;;;23.03;32.75195;941.1905;;;;
2020/10/19 12:01:20;;;;;;;1.9;0.6;;;;;;;22.43;34.19727;941.1358;;;;
2020/10/19 12:03:51;;;;;;;0.7;0.5;;;;;;;22.43;34.4668;941.1902;;;;
2020/10/19 12:06:15;;;;;;;0.8;0.5;;;;;;;22.53;35.0498;941.1677;;;;
2020/10/19 12:08:41;;;;;;;2.2;0.9;;;;;;;21.85;35.79297;941.1458;;;;
2020/10/19 12:11:06;;;;;;;1.6;0.7;;;;;;;22.03;36.19434;941.1077;;;;
2020/10/19 12:13:32;;;;;;;0.5;0.4;;;;;;;22.5;36.50293;941.0826;;;;
2020/10/19 12:16:07;;;;;;;1;0.5;;;;;;;23.02;34.67773;941.0773;;;;
2020/10/19 12:18:34;;;;;;;1.2;0.7;;;;;;;24.79;32.61035;941.0774;;;;
2020/10/19 12:21:02;;;;;;;0.9;0.5;;;;;;;25.98;30.68652;941.0308;;;;
2020/10/19 12:23:28;;;;;;;1.5;1;;;;;;;26.91;29.39941;941.0078;;;;
2020/10/19 12:25:53;;;;;;;1.6;0.8;;;;;;;27.65;27.38281;940.968;;;;
2020/10/19 12:28:20;;;;;;;0.7;0.6;;;;;;;28.76;25.60547;940.9525;;;;
2020/10/19 12:30:46;;;;;;;1.2;0.4;;;;;;;29.01;25.65527;940.9168;;;;
2020/10/19 12:33:14;;;;;;;1;0.6;;;;;;;29.51;25.375;940.8661;;;;
2020/10/19 12:35:39;;;;;;;0.5;0.5;;;;;;;30.05;24.72461;940.8176;;;;
2020/10/19 12:38:07;;;;;;;0.6;0.4;;;;;;;30.8;23.34277;940.7957;;;;
2020/10/19 12:40:41;;;;;;;0.3;0.3;;;;;;;31.45;22.70605;940.715;;;;
2020/10/19 12:43:07;;;;;;;0.4;0.3;;;;;;;30.6;23.12988;940.7954;;;;
2020/10/19 12:45:48;;;;;;;0.4;0.4;;;;;;;31.27;22.49414;940.7739;;;;
2020/10/19 12:48:18;;;;;;;1.1;0.6;;;;;;;30.4;23.29883;940.8253;;;;
2020/10/19 12:50:44;;;;;;;1;0.6;;;;;;;31.4;22.09277;940.8384;;;;
2020/10/19 12:53:14;;;;;;;1;0.6;;;;;;;32.25;21.17578;940.8522;;;;
2020/10/19 12:55:39;;;;;;;0.6;0.2;;;;;;;32.75;21.0791;940.8297;;;;
2020/10/19 12:58:07;;;;;;;0.6;0.4;;;;;;;32.13;21.42188;940.7941;;;;
2020/10/19 13:00:32;;;;;;;0.6;0.4;;;;;;;31.96;21.49707;940.7862;;;;
2020/10/19 13:02:57;;;;;;;0.5;0.5;;;;;;;31.34;22.42578;940.7573;;;;
2020/10/19 13:05:22;;;;;;;0.7;0.4;;;;;;;31.74;21.82227;940.8298;;;;
2020/10/19 13:07:52;;;;;;;1;0.5;;;;;;;31.95;21.50879;940.8914;;;;
2020/10/19 13:10:17;;;;;;;1.8;0.5;;;;;;;31.35;22.40234;940.8787;;;;
2020/10/19 13:12:44;;;;;;;0.5;0.4;;;;;;;31.63;22.27246;940.8419;;;;
2020/10/19 13:15:09;;;;;;;0.9;0.5;;;;;;;32.25;21.64355;940.7834;;;;
2020/10/19 13:17:37;;;;;;;0.8;0.4;;;;;;;32.4;20.72656;940.7701;;;;
2020/10/19 13:20:00;;;;;;;0.8;0.5;;;;;;;31.32;22.19727;940.7366;;;;
2020/10/19 13:22:25;;;;;;;1.1;0.6;;;;;;;31.77;21.52441;940.6883;;;;
2020/10/19 13:24:53;;;;;;;0.3;0.3;;;;;;;31.28;21.63281;940.6715;;;;
2020/10/19 13:27:15;;;;;;;0.5;0.4;;;;;;;31.36;21.70898;940.6439;;;;
2020/10/19 13:29:40;;;;;;;1.2;0.5;;;;;;;31.31;21.98145;940.623;;;;
2020/10/19 13:32:06;;;;;;;0.6;0.4;;;;;;;30.99;22.50391;940.5627;;;;
2020/10/19 13:34:31;;;;;;;2.3;0.5;;;;;;;28.91;24.41211;940.6888;;;;
2020/10/19 13:36:56;;;;;;;0.7;0.5;;;;;;;29.78;23.38672;940.5772;;;;
2020/10/19 13:39:22;;;;;;;0.6;0.4;;;;;;;30.09;23.66504;940.5735;;;;
2020/10/19 13:41:47;;;;;;;0.4;0.3;;;;;;;29.82;24.11523;940.5002;;;;
2020/10/19 13:44:13;;;;;;;1;0.6;;;;;;;30.1;23.58105;940.5403;;;;
2020/10/19 13:46:39;;;;;;;0.6;0.4;;;;;;;30.61;22.65234;940.5862;;;;
2020/10/19 13:49:04;;;;;;;1.1;0.6;;;;;;;30.93;21.99902;940.4944;;;;
2020/10/19 13:51:31;;;;;;;1.5;0.3;;;;;;;30.72;22.74219;940.5298;;;;
2020/10/19 13:53:56;;;;;;;0.8;0.4;;;;;;;31.11;22.65332;940.6025;;;;
2020/10/19 13:56:22;;;;;;;0.5;0.5;;;;;;;30.31;23.35352;940.5705;;;;
2020/10/19 13:58:47;;;;;;;0.7;0.5;;;;;;;30.27;23.28027;940.5815;;;;
2020/10/19 14:01:12;;;;;;;0.9;0.6;;;;;;;28.91;24.35254;940.678;;;;
2020/10/19 14:03:37;;;;;;;0.5;0.5;;;;;;;29.59;23.74512;940.5969;;;;
2020/10/19 14:06:03;;;;;;;1;0.6;;;;;;;29.24;24.15625;940.5975;;;;
2020/10/19 14:08:28;;;;;;;1.5;0.6;;;;;;;27.23;26.84668;940.4754;;;;
2020/10/19 14:11:28;;;;;;;0.8;0.6;;;;;;;27.39;26.50098;940.4401;;;;
2020/10/19 14:13:22;;;;;;;0.8;0.6;;;;;;;26.05;28.46777;940.4651;;;;
2020/10/19 14:15:47;;;;;;;0.4;0.4;;;;;;;25.67;29.15234;940.5219;;;;
2020/10/19 14:18:12;;;;;;;0.5;0.5;;;;;;;26.15;28.6748;940.4409;;;;
2020/10/19 14:20:40;;;;;;;0.9;0.6;;;;;;;26.1;28.45898;940.427;;;;
2020/10/19 14:23:05;;;;;;;0.9;0.6;;;;;;;26.74;28.15625;940.4608;;;;
2020/10/19 14:25:30;;;;;;;2.3;0.6;;;;;;;26.2;28.46582;940.4369;;;;
2020/10/19 14:27:55;;;;;;;0.5;0.5;;;;;;;24.38;31.22461;940.4928;;;;
2020/10/19 14:30:24;;;;;;;1.1;0.8;;;;;;;24.62;30.90039;940.4922;;;;
2020/10/19 14:32:49;;;;;;;0.8;0.6;;;;;;;24.85;30.50293;940.4218;;;;
2020/10/19 14:35:14;;;;;;;1.5;0.7;;;;;;;24.69;30.91699;940.4186;;;;